KYIP/YIP METAR and TAF weather

Enter ICAO airport designator
Station Type Date Time Source
KYIP METAR 2020/11/27 02:53 UTC NOAA

KYIP 270253Z 22007KT 10SM OVC028 08/04 A3006 RMK AO2 SLP180 T00830039 51006


Station Type Date Time Source
KYIP Decoded METAR 2020/11/27 02:53 UTC NOAA

WILLOW RUN AIRPORT, MI, United States (KYIP) 42-14N 083-32W 215M
Nov 26, 2020 - 09:53 PM EST / 2020.11.27 0253 UTC
Wind: from the SW (220 degrees) at 8 MPH (7 KT):0
Visibility: 10 mile(s):0
Sky conditions: overcast
Temperature: 46.9 F (8.3 C)
Dew Point: 39.0 F (3.9 C)
Relative Humidity: 73%
Pressure (altimeter): 30.06 in. Hg (1017 hPa)
Pressure tendency: 0.02 inches (0.6 hPa) higher than three hours ago
ob: KYIP 270253Z 22007KT 10SM OVC028 08/04 A3006 RMK AO2 SLP180 T00830039 51006
cycle: 3

Station Type Date Time Source
KYIP TAF 2020/11/27 01:54 UTC NOAA

TAF
AMD KYIP 270051Z 2701/2724 24008KT P6SM BKN028
FM270800 24005KT 6SM BR OVC015
FM271300 23009KT P6SM OVC015
FM272100 27009KT P6SM OVC025

Example: see airport list